Time;durP1;ratioP1;P1;durP2;ratioP2;P2;SDS_P1;SDS_P2;PMS_P1;PMS_P2;Temp;Humidity;BMP_temperature;BMP_pressure;BME280_temperature;BME280_humidity;BME280_pressure;Samples;Min_cycle;Max_cycle;Signal;HPM_P1;HPM_P2
2022/06/30 00:01:28;;;;;;;8.35;3.85;;;;;;;20.16;59.69;93942.91;5024322;28;20104;-78
2022/06/30 00:03:54;;;;;;;8.02;4.38;;;;;;;20.14;59.44;93939.78;5024528;28;20025;-78
2022/06/30 00:06:19;;;;;;;7.55;4.35;;;;;;;20.11;59.47;93929.72;5024272;28;20021;-78
2022/06/30 00:08:45;;;;;;;10.48;5.85;;;;;;;20.10;60.22;93941.69;5024406;28;20030;-78
2022/06/30 00:11:10;;;;;;;9.20;4.68;;;;;;;20.11;59.97;93932.44;5023128;28;20021;-78
2022/06/30 00:13:38;;;;;;;8.65;4.03;;;;;;;20.11;60.21;93927.00;5024256;28;20081;-78
2022/06/30 00:16:04;;;;;;;7.38;4.50;;;;;;;20.14;59.75;93931.66;5024076;28;20021;-78
2022/06/30 00:18:30;;;;;;;6.72;4.07;;;;;;;20.14;59.67;93937.09;5023893;28;20022;-78
2022/06/30 00:20:56;;;;;;;7.85;3.90;;;;;;;20.13;59.97;93924.72;5024033;28;20120;-78
2022/06/30 00:23:21;;;;;;;10.02;4.55;;;;;;;20.12;59.85;93933.97;5023991;28;20028;-78
2022/06/30 00:25:47;;;;;;;9.65;4.15;;;;;;;20.08;60.34;93933.16;5024072;28;20063;-78
2022/06/30 00:28:13;;;;;;;12.13;4.35;;;;;;;20.03;60.63;93928.88;5023923;28;20026;-78
2022/06/30 00:30:38;;;;;;;8.63;4.32;;;;;;;20.04;60.65;93929.63;5022790;28;20424;-78
2022/06/30 00:33:03;;;;;;;9.40;4.55;;;;;;;20.01;60.83;93927.69;5023641;28;20025;-78
2022/06/30 00:35:29;;;;;;;10.63;4.78;;;;;;;20.00;60.67;93934.22;5023863;28;20311;-78
2022/06/30 00:37:54;;;;;;;7.88;4.80;;;;;;;19.99;60.77;93930.75;5023973;28;20334;-78
2022/06/30 00:40:21;;;;;;;10.63;4.35;;;;;;;19.97;60.94;93921.47;5023741;28;20029;-78
2022/06/30 00:42:46;;;;;;;8.75;4.70;;;;;;;19.96;61.13;93922.59;5023775;28;20338;-78
2022/06/30 00:45:12;;;;;;;9.45;4.35;;;;;;;19.90;61.54;93930.25;5023672;28;20010;-78
2022/06/30 00:47:37;;;;;;;9.90;4.90;;;;;;;19.94;61.65;93936.50;5023666;28;20108;-78
2022/06/30 00:50:03;;;;;;;8.73;4.55;;;;;;;19.84;61.96;93927.13;5023494;28;20029;-78
2022/06/30 00:52:30;;;;;;;10.95;4.50;;;;;;;19.81;61.98;93925.16;5023607;28;20334;-77
2022/06/30 00:54:58;;;;;;;11.82;4.85;;;;;;;19.86;62.37;93931.38;5038861;28;20022;-77
2022/06/30 00:57:25;;;;;;;14.77;4.72;;;;;;;19.82;62.39;93920.50;5023302;28;20061;-77
2022/06/30 00:59:53;;;;;;;15.18;4.63;;;;;;;19.79;62.57;93926.69;5023403;28;20037;-78
2022/06/30 01:02:19;;;;;;;10.15;4.70;;;;;;;19.81;63.04;93930.56;5023705;28;20025;-78
2022/06/30 01:04:51;;;;;;;15.00;5.38;;;;;;;19.79;62.74;93930.16;5023381;28;20076;-79
2022/06/30 01:07:18;;;;;;;9.70;4.75;;;;;;;19.80;62.96;93926.31;5022309;28;20018;-78
2022/06/30 01:12:43;;;;;;;12.20;5.07;;;;;;;19.76;63.19;93920.09;5023178;28;20227;-77
2022/06/30 01:15:14;;;;;;;10.30;4.97;;;;;;;19.76;63.30;93919.28;5023008;28;20021;-77
2022/06/30 01:17:39;;;;;;;11.07;4.65;;;;;;;19.72;63.55;93932.78;5022998;28;20333;-78
2022/06/30 01:20:05;;;;;;;8.43;4.72;;;;;;;19.68;63.77;93926.50;5022950;28;20088;-77
2022/06/30 01:22:31;;;;;;;7.18;4.93;;;;;;;19.63;64.36;93927.63;5022887;28;20030;-77
2022/06/30 01:24:56;;;;;;;9.23;5.05;;;;;;;19.57;64.64;93920.97;5023317;28;20140;-78
2022/06/30 01:27:22;;;;;;;18.20;5.65;;;;;;;19.53;64.74;93924.81;5023002;28;20030;-77
2022/06/30 01:29:48;;;;;;;9.68;5.03;;;;;;;19.49;64.94;93919.34;5023135;28;20037;-77
2022/06/30 01:32:13;;;;;;;11.13;4.30;;;;;;;19.44;65.12;93911.56;5022796;28;20048;-77
2022/06/30 01:34:39;;;;;;;8.32;5.03;;;;;;;19.40;65.63;93914.22;5023156;28;20249;-77
2022/06/30 01:37:05;;;;;;;9.68;4.38;;;;;;;19.38;65.66;93921.94;5022953;28;20018;-77
2022/06/30 01:39:30;;;;;;;11.30;4.70;;;;;;;19.31;65.42;93918.34;5022646;28;20021;-77
2022/06/30 01:41:56;;;;;;;10.32;4.80;;;;;;;19.30;65.45;93916.81;5054986;28;20049;-77
2022/06/30 01:44:22;;;;;;;8.82;5.07;;;;;;;19.19;65.66;93912.03;5022857;28;20037;-76
2022/06/30 01:46:49;;;;;;;11.98;5.13;;;;;;;19.14;65.91;93908.88;5022849;28;20251;-76
2022/06/30 01:49:15;;;;;;;15.55;5.15;;;;;;;19.11;66.23;93910.41;5022825;28;20045;-76
2022/06/30 01:51:41;;;;;;;8.57;5.10;;;;;;;19.08;66.45;93911.09;5022753;28;20101;-76
2022/06/30 01:54:08;;;;;;;10.38;4.38;;;;;;;19.02;66.32;93905.25;5022877;28;20025;-77
2022/06/30 01:56:34;;;;;;;8.50;4.97;;;;;;;18.99;66.34;93908.69;5022697;28;20215;-77
2022/06/30 01:58:59;;;;;;;9.73;4.75;;;;;;;18.94;66.05;93908.97;5022649;28;20041;-77
2022/06/30 02:01:25;;;;;;;9.38;4.93;;;;;;;18.92;66.80;93895.06;5022669;28;20319;-77
2022/06/30 02:03:50;;;;;;;14.48;4.75;;;;;;;18.91;66.84;93898.94;5022552;28;20049;-77
2022/06/30 02:06:16;;;;;;;7.93;5.22;;;;;;;18.91;67.02;93909.72;5022664;28;20064;-77
2022/06/30 02:08:41;;;;;;;13.20;5.45;;;;;;;18.86;67.06;93915.44;5022613;28;20064;-77
2022/06/30 02:11:07;;;;;;;12.07;5.63;;;;;;;18.83;67.29;93910.78;5022383;28;20022;-77
2022/06/30 02:13:32;;;;;;;11.18;5.28;;;;;;;18.78;67.58;93911.03;5022690;28;20068;-77
2022/06/30 02:15:58;;;;;;;9.27;4.80;;;;;;;18.74;67.59;93918.31;5022648;28;20211;-78
2022/06/30 02:18:24;;;;;;;9.75;5.13;;;;;;;18.76;67.38;93916.78;5022328;28;20259;-77
2022/06/30 02:20:49;;;;;;;7.72;5.05;;;;;;;18.73;67.62;93925.63;5022558;28;20022;-77
2022/06/30 02:23:15;;;;;;;9.05;5.30;;;;;;;18.70;67.87;93917.47;5022618;28;20342;-77
2022/06/30 02:25:40;;;;;;;10.82;5.00;;;;;;;18.66;67.73;93922.81;5022381;28;20021;-77
2022/06/30 02:28:06;;;;;;;11.23;5.68;;;;;;;18.63;67.75;93918.16;5022264;28;20022;-77
2022/06/30 02:30:32;;;;;;;8.45;4.80;;;;;;;18.63;67.66;93927.03;5054265;28;20022;-77
2022/06/30 02:32:57;;;;;;;11.05;4.45;;;;;;;18.60;67.36;93925.06;5022375;28;20223;-78
2022/06/30 02:35:24;;;;;;;7.75;4.82;;;;;;;18.57;66.59;93923.06;5025803;28;20084;-78
2022/06/30 02:37:49;;;;;;;11.77;4.40;;;;;;;18.58;65.18;93927.34;5026138;28;20084;-78
2022/06/30 02:40:15;;;;;;;7.80;4.40;;;;;;;18.58;65.42;93932.75;5026074;28;20021;-77
2022/06/30 02:42:41;;;;;;;8.68;4.28;;;;;;;18.59;65.55;93928.13;5025856;28;20089;-78
2022/06/30 02:45:07;;;;;;;6.78;4.43;;;;;;;18.56;66.04;93929.63;5025970;28;20316;-78
2022/06/30 02:47:38;;;;;;;12.00;5.00;;;;;;;18.58;66.58;93931.94;5025722;28;20211;-78
2022/06/30 02:50:07;;;;;;;7.65;4.18;;;;;;;18.58;66.19;93930.03;5025659;28;20037;-79
2022/06/30 02:52:33;;;;;;;6.40;3.92;;;;;;;18.58;65.99;93929.25;5025721;28;20072;-78
2022/06/30 02:55:00;;;;;;;6.50;4.35;;;;;;;18.55;66.40;93927.28;5025826;28;20197;-78
2022/06/30 02:57:25;;;;;;;14.70;4.50;;;;;;;18.56;66.33;93932.31;5025443;28;20100;-79
2022/06/30 02:59:51;;;;;;;12.70;4.40;;;;;;;18.51;66.25;93932.63;5025791;28;20056;-77
2022/06/30 03:02:17;;;;;;;12.07;4.22;;;;;;;18.49;66.34;93934.91;5025813;28;20060;-77
2022/06/30 03:04:42;;;;;;;11.25;4.20;;;;;;;18.49;66.47;93934.91;5025425;28;20018;-79
2022/06/30 03:07:08;;;;;;;12.00;4.22;;;;;;;18.48;66.41;93927.97;5057310;28;20022;-79
2022/06/30 03:09:34;;;;;;;12.30;4.05;;;;;;;18.49;66.06;93926.03;5025507;28;20028;-79
2022/06/30 03:11:59;;;;;;;7.90;4.03;;;;;;;18.47;66.14;93933.72;5025482;28;20022;-79
2022/06/30 03:14:24;;;;;;;6.68;3.92;;;;;;;18.49;66.10;93921.41;5025370;28;20032;-79
2022/06/30 03:16:50;;;;;;;9.32;3.78;;;;;;;18.49;66.07;93923.34;5025374;28;20089;-78
2022/06/30 03:19:15;;;;;;;7.05;4.18;;;;;;;18.45;66.27;93918.63;5025388;28;20021;-78
2022/06/30 03:21:41;;;;;;;6.60;4.10;;;;;;;18.46;65.06;93908.66;5025126;28;20028;-78
2022/06/30 03:24:07;;;;;;;8.23;4.32;;;;;;;18.51;65.22;93921.81;5025306;28;20021;-77
2022/06/30 03:26:32;;;;;;;11.75;3.95;;;;;;;18.52;65.57;93915.28;5025081;28;20064;-77
2022/06/30 03:28:58;;;;;;;8.57;4.28;;;;;;;18.55;65.96;93921.88;5024943;28;20033;-78
2022/06/30 03:31:23;;;;;;;14.18;4.15;;;;;;;18.56;66.01;93926.94;5025160;28;20222;-77
2022/06/30 03:33:49;;;;;;;7.47;4.10;;;;;;;18.60;65.87;93925.06;5025153;28;20029;-77
2022/06/30 03:36:14;;;;;;;6.20;4.25;;;;;;;18.65;66.12;93921.28;5024776;28;20247;-77
2022/06/30 03:38:40;;;;;;;7.35;4.32;;;;;;;18.71;65.38;93927.91;5024775;28;20280;-78
2022/06/30 03:41:05;;;;;;;7.97;3.67;;;;;;;18.78;64.84;93932.63;5024827;28;20096;-77
2022/06/30 03:43:30;;;;;;;12.73;4.25;;;;;;;18.83;64.75;93937.78;5024856;28;20025;-77
2022/06/30 03:45:56;;;;;;;8.88;4.50;;;;;;;18.89;64.91;93936.31;5024426;28;20052;-77
2022/06/30 03:48:21;;;;;;;7.30;3.65;;;;;;;18.93;64.62;93931.75;5024400;28;20076;-77
2022/06/30 03:50:47;;;;;;;12.65;4.20;;;;;;;19.00;64.10;93929.13;5024785;28;20079;-77
2022/06/30 03:53:12;;;;;;;9.15;5.10;;;;;;;19.07;63.90;93930.38;5024678;28;20036;-77
2022/06/30 03:55:39;;;;;;;7.85;4.80;;;;;;;19.14;63.52;93930.50;5024579;28;20205;-77
2022/06/30 03:58:08;;;;;;;5.75;4.13;;;;;;;19.22;63.85;93929.44;5024308;28;20231;-77
2022/06/30 04:00:35;;;;;;;6.35;4.32;;;;;;;19.27;64.19;93936.44;5024289;28;20030;-77
2022/06/30 04:03:02;;;;;;;6.68;4.20;;;;;;;19.35;64.15;93936.16;5023115;28;20057;-77
2022/06/30 04:05:28;;;;;;;11.90;5.80;;;;;;;19.44;64.00;93942.06;5024314;28;20032;-77
2022/06/30 04:07:53;;;;;;;11.07;5.00;;;;;;;19.47;63.65;93934.38;5024043;28;20026;-76
2022/06/30 04:10:18;;;;;;;10.65;4.90;;;;;;;19.47;63.58;93937.84;5024392;28;20034;-77
2022/06/30 04:12:44;;;;;;;10.73;5.30;;;;;;;19.52;63.50;93939.44;5024051;28;20030;-77
2022/06/30 04:15:10;;;;;;;13.70;5.35;;;;;;;19.58;64.02;93944.19;5024207;28;20096;-76
2022/06/30 04:17:35;;;;;;;9.70;5.13;;;;;;;19.58;64.41;93933.38;5023977;28;20219;-76
2022/06/30 04:20:06;;;;;;;12.70;5.63;;;;;;;19.61;64.29;93929.16;5022926;28;20029;-77
2022/06/30 04:22:31;;;;;;;17.88;5.45;;;;;;;19.60;64.39;93943.78;5024041;28;20371;-77
2022/06/30 04:24:57;;;;;;;9.65;6.13;;;;;;;19.64;64.13;93928.41;5023945;28;20034;-76
2022/06/30 04:27:23;;;;;;;17.30;6.60;;;;;;;19.71;63.33;93931.22;5023793;28;20296;-76
2022/06/30 04:29:48;;;;;;;10.70;5.80;;;;;;;19.82;63.67;93939.44;5024101;28;20036;-76
2022/06/30 04:34:58;;;;;;;18.08;6.72;;;;;;;19.93;63.62;93934.19;5023719;28;20052;-76
2022/06/30 04:37:24;;;;;;;13.05;5.97;;;;;;;19.95;63.76;93932.66;5023548;28;20092;-77
2022/06/30 04:41:23;;;;;;;19.88;6.68;;;;;;;19.95;64.74;93942.69;5023949;28;20021;-76
2022/06/30 04:42:34;;;;;;;19.20;6.97;;;;;;;19.95;64.36;93945.41;5023355;28;20034;-76
2022/06/30 04:45:00;;;;;;;16.90;7.78;;;;;;;19.94;63.88;93946.53;5023533;28;20304;-76
2022/06/30 04:47:25;;;;;;;16.42;7.45;;;;;;;19.93;64.21;93948.47;5023703;28;20054;-76
2022/06/30 04:49:51;;;;;;;15.48;7.70;;;;;;;20.00;63.35;93956.66;5023675;28;20018;-76
2022/06/30 04:52:16;;;;;;;16.23;7.80;;;;;;;19.99;63.74;93946.22;5023635;28;20030;-76
2022/06/30 04:54:41;;;;;;;12.63;7.85;;;;;;;20.02;63.83;93946.22;5023784;28;20018;-76
2022/06/30 04:57:07;;;;;;;23.65;7.60;;;;;;;20.03;64.12;93944.31;5022844;28;20025;-77
2022/06/30 04:59:32;;;;;;;11.52;7.60;;;;;;;20.07;64.28;93953.25;5023512;28;20029;-76
2022/06/30 05:01:58;;;;;;;21.83;8.05;;;;;;;20.14;65.08;93956.03;5023365;28;20029;-76
2022/06/30 05:04:23;;;;;;;17.02;8.32;;;;;;;20.18;64.80;93946.00;5023391;28;20032;-76
2022/06/30 05:06:49;;;;;;;36.58;6.97;;;;;;;20.25;64.33;93948.00;5023500;28;20101;-76
2022/06/30 05:09:14;;;;;;;19.90;8.68;;;;;;;20.32;64.85;93948.09;5023407;28;20097;-76
2022/06/30 05:11:39;;;;;;;22.98;7.82;;;;;;;20.43;63.97;93948.97;5023228;28;20429;-76
2022/06/30 05:14:05;;;;;;;17.15;7.47;;;;;;;20.59;63.27;93956.09;5023242;28;20022;-76
2022/06/30 05:16:30;;;;;;;17.52;8.30;;;;;;;20.71;62.23;93955.03;5023287;28;20045;-85
2022/06/30 05:18:56;;;;;;;12.10;7.25;;;;;;;20.74;63.14;93962.38;5022868;28;20033;-72
2022/06/30 05:21:21;;;;;;;20.13;7.35;;;;;;;20.77;63.42;93961.66;5022845;28;20056;-72
2022/06/30 05:26:28;;;;;;;30.27;8.32;;;;;;;20.89;63.13;93960.59;5023274;28;20093;-72
2022/06/30 05:26:33;;;;;;;13.45;7.07;;;;;;;20.91;62.20;93966.41;5022718;28;20042;-77
2022/06/30 05:28:59;;;;;;;18.40;6.85;;;;;;;20.98;61.94;93961.78;5023026;28;20037;-75
2022/06/30 05:31:24;;;;;;;17.42;7.85;;;;;;;21.00;63.09;93967.63;5023150;28;20282;-74
2022/06/30 05:33:49;;;;;;;23.73;7.63;;;;;;;21.08;61.79;93964.97;5022863;28;20026;-76
2022/06/30 05:36:15;;;;;;;23.55;8.65;;;;;;;21.10;62.09;93963.41;5022762;28;20298;-76
2022/06/30 05:38:40;;;;;;;15.27;7.85;;;;;;;21.15;61.69;93970.44;5022806;28;20029;-79
2022/06/30 05:41:06;;;;;;;23.33;9.20;;;;;;;21.16;61.45;93967.31;5022784;28;20235;-74
2022/06/30 05:43:31;;;;;;;15.25;8.93;;;;;;;21.17;62.21;93968.91;5022509;28;20033;-73
2022/06/30 05:45:56;;;;;;;13.48;7.60;;;;;;;21.20;61.49;93975.50;5023062;28;20037;-82
2022/06/30 05:48:22;;;;;;;14.18;7.70;;;;;;;21.27;61.00;93980.97;5022923;28;20033;-76
2022/06/30 05:50:48;;;;;;;15.63;6.90;;;;;;;21.16;60.04;93980.88;5023018;28;20025;-77
2022/06/30 05:53:13;;;;;;;13.02;7.97;;;;;;;21.06;61.11;93984.31;5022901;28;20105;-77
2022/06/30 05:55:39;;;;;;;14.77;7.53;;;;;;;21.04;61.43;93981.19;5021599;28;20060;-77
2022/06/30 05:58:04;;;;;;;14.85;6.32;;;;;;;21.08;61.09;93979.28;5020919;28;20048;-78
2022/06/30 06:00:31;;;;;;;18.67;6.40;;;;;;;21.22;60.82;93984.03;5020976;28;20238;-77
2022/06/30 06:02:57;;;;;;;9.35;6.30;;;;;;;21.29;59.82;93980.56;5020920;28;20036;-76
2022/06/30 06:05:23;;;;;;;14.98;7.13;;;;;;;21.34;59.45;93981.00;5021024;28;20299;-78
2022/06/30 06:07:49;;;;;;;22.10;6.38;;;;;;;21.48;59.21;93993.13;5021168;28;20022;-79
2022/06/30 06:10:15;;;;;;;18.35;7.30;;;;;;;21.52;59.25;93977.66;5024620;28;20420;-78
2022/06/30 06:12:45;;;;;;;14.25;6.70;;;;;;;21.54;58.62;93986.19;5026336;28;20049;-78
2022/06/30 06:15:14;;;;;;;17.10;6.95;;;;;;;21.63;59.00;93986.59;5026599;28;20055;-77
2022/06/30 06:17:44;;;;;;;17.33;6.30;;;;;;;21.68;58.95;93991.69;5025550;28;20272;-77
2022/06/30 06:20:12;;;;;;;17.67;6.88;;;;;;;21.76;58.02;93992.50;5024580;28;20053;-78
2022/06/30 06:22:37;;;;;;;22.85;7.40;;;;;;;21.81;58.03;93995.59;5023667;28;20022;-77
2022/06/30 06:25:03;;;;;;;15.95;7.30;;;;;;;21.91;56.56;93993.31;5024251;28;20085;-77
2022/06/30 06:27:28;;;;;;;16.55;7.15;;;;;;;21.99;57.17;93992.97;5024396;28;20044;-77
2022/06/30 06:29:54;;;;;;;13.18;6.40;;;;;;;22.05;57.84;93996.09;5024499;28;20025;-77
2022/06/30 06:32:22;;;;;;;14.02;7.20;;;;;;;22.14;55.90;93993.00;5025365;28;20022;-77
2022/06/30 06:34:47;;;;;;;12.98;7.18;;;;;;;22.23;55.10;93983.38;5026392;28;20311;-77
2022/06/30 06:37:12;;;;;;;16.52;7.95;;;;;;;22.27;55.78;93988.81;5026178;28;20049;-77
2022/06/30 06:39:38;;;;;;;26.65;8.68;;;;;;;22.31;56.05;93977.94;5026211;28;20030;-78
2022/06/30 06:42:03;;;;;;;23.55;8.00;;;;;;;22.37;55.18;93977.19;5025952;28;20375;-77
2022/06/30 06:44:29;;;;;;;14.55;7.13;;;;;;;22.37;56.21;93988.06;5026076;28;20049;-77
2022/06/30 06:46:54;;;;;;;15.90;8.20;;;;;;;22.36;55.25;93980.28;5025952;28;20052;-77
2022/06/30 06:49:20;;;;;;;19.20;9.27;;;;;;;22.40;55.88;93975.66;5026068;28;20331;-78
2022/06/30 06:51:45;;;;;;;18.73;8.95;;;;;;;22.44;55.67;93976.44;5025765;28;20057;-77
2022/06/30 06:54:10;;;;;;;17.33;10.23;;;;;;;22.51;55.97;93981.09;5025870;28;20190;-77
2022/06/30 06:56:36;;;;;;;18.38;9.38;;;;;;;22.55;55.67;93982.66;5025624;28;20098;-77
2022/06/30 06:59:01;;;;;;;15.02;9.07;;;;;;;22.61;55.90;93969.47;5025591;28;20127;-77
2022/06/30 07:01:27;;;;;;;20.42;9.07;;;;;;;22.69;54.99;93975.69;5025799;28;20374;-77
2022/06/30 07:03:52;;;;;;;20.63;9.18;;;;;;;22.76;55.72;93971.03;5025974;28;20068;-77
2022/06/30 07:06:18;;;;;;;18.40;9.38;;;;;;;22.88;56.27;93972.59;5025328;28;20086;-77
2022/06/30 07:08:43;;;;;;;19.95;9.77;;;;;;;22.93;55.23;93977.63;5025456;28;20087;-77
2022/06/30 07:11:09;;;;;;;20.65;11.25;;;;;;;23.00;55.88;93969.47;5025607;28;20100;-77
2022/06/30 07:13:35;;;;;;;21.27;10.20;;;;;;;23.08;55.55;93964.84;5025360;28;20076;-77
2022/06/30 07:16:01;;;;;;;19.77;9.82;;;;;;;23.18;55.26;93968.69;5025490;28;20026;-77
2022/06/30 07:18:27;;;;;;;17.63;9.02;;;;;;;23.30;55.07;93962.84;5025236;28;20068;-77
2022/06/30 07:20:53;;;;;;;19.50;10.55;;;;;;;23.44;53.85;93970.97;5025203;28;20045;-78
2022/06/30 07:23:18;;;;;;;18.77;8.73;;;;;;;23.53;52.92;93969.78;5025404;28;20037;-77
2022/06/30 07:25:44;;;;;;;18.92;9.98;;;;;;;23.59;52.96;93968.22;5025349;28;20033;-77
2022/06/30 07:28:09;;;;;;;19.65;10.00;;;;;;;23.67;52.54;93958.88;5025321;28;20025;-77
2022/06/30 07:30:35;;;;;;;22.63;9.48;;;;;;;23.80;54.51;93975.56;5025295;28;20324;-77
2022/06/30 07:33:00;;;;;;;22.17;8.32;;;;;;;23.92;51.79;93972.41;5025064;28;20051;-78
2022/06/30 07:35:26;;;;;;;14.65;8.00;;;;;;;23.97;52.45;93971.22;5025023;28;20036;-77
2022/06/30 07:37:51;;;;;;;31.60;9.32;;;;;;;24.03;52.90;93969.63;5025333;28;20048;-77
2022/06/30 07:40:17;;;;;;;26.08;9.15;;;;;;;24.07;52.58;93966.91;5025090;28;20093;-78
2022/06/30 07:42:42;;;;;;;16.13;7.47;;;;;;;24.16;50.41;93969.97;5024908;28;20052;-78
2022/06/30 07:45:09;;;;;;;24.10;8.63;;;;;;;24.26;50.28;93971.84;5025034;28;20022;-77
2022/06/30 07:47:34;;;;;;;17.70;7.53;;;;;;;24.31;48.84;93976.13;5024869;28;20028;-77
2022/06/30 07:50:00;;;;;;;16.02;6.93;;;;;;;24.35;48.57;93966.75;5024976;28;20026;-77
2022/06/30 07:52:26;;;;;;;17.23;7.60;;;;;;;24.36;50.85;93956.63;5024902;28;20136;-78
2022/06/30 07:54:52;;;;;;;12.60;7.20;;;;;;;24.30;49.40;93966.38;5025245;28;20045;-78
2022/06/30 07:57:19;;;;;;;22.70;6.72;;;;;;;24.37;50.14;93958.19;5024510;28;20041;-77
2022/06/30 07:59:45;;;;;;;14.63;6.75;;;;;;;24.52;50.71;93969.78;5024572;28;20668;-77
2022/06/30 08:02:11;;;;;;;16.55;7.40;;;;;;;24.66;50.77;93972.41;5024672;28;20022;-78
2022/06/30 08:04:37;;;;;;;14.60;6.28;;;;;;;24.82;50.23;93966.47;5024439;28;20052;-76
2022/06/30 08:07:03;;;;;;;17.95;6.63;;;;;;;24.94;49.20;93963.25;5024562;28;20307;-76
2022/06/30 08:09:29;;;;;;;9.25;6.15;;;;;;;24.93;48.10;93971.81;5024691;28;20034;-77
2022/06/30 08:11:55;;;;;;;16.10;6.78;;;;;;;25.08;47.45;93967.03;5025063;28;20021;-77
2022/06/30 08:14:23;;;;;;;13.50;5.53;;;;;;;25.20;46.74;93955.63;5024495;28;20021;-76
2022/06/30 08:16:49;;;;;;;8.40;5.28;;;;;;;25.10;46.76;93968.19;5024226;28;20045;-77
2022/06/30 08:19:16;;;;;;;9.35;5.45;;;;;;;25.25;46.38;93966.13;5024231;28;20022;-77
2022/06/30 08:21:42;;;;;;;31.27;6.28;;;;;;;25.32;46.46;93963.34;5024417;28;20237;-77
2022/06/30 08:24:08;;;;;;;17.23;5.40;;;;;;;25.47;46.15;93957.72;5024226;28;20032;-76
2022/06/30 08:26:33;;;;;;;14.30;5.47;;;;;;;25.58;45.48;93963.81;5024037;28;20022;-77
2022/06/30 08:28:59;;;;;;;15.13;5.85;;;;;;;25.64;44.96;93962.19;5024315;28;20341;-77
2022/06/30 08:31:24;;;;;;;14.77;5.43;;;;;;;25.65;44.64;93958.31;5023474;28;20105;-77
2022/06/30 08:33:52;;;;;;;10.70;5.32;;;;;;;25.58;44.07;93958.38;5023965;28;20117;-76
2022/06/30 08:36:18;;;;;;;13.85;5.13;;;;;;;25.71;44.53;93967.59;5024088;28;20053;-77
2022/06/30 08:38:43;;;;;;;10.10;5.35;;;;;;;25.75;44.24;93971.06;5024097;28;20272;-76
2022/06/30 08:43:53;;;;;;;10.75;5.07;;;;;;;25.92;43.92;93957.63;5024354;28;20028;-77
2022/06/30 08:46:22;;;;;;;15.18;5.68;;;;;;;26.04;45.15;93965.28;5023930;28;20224;-76
2022/06/30 08:48:47;;;;;;;14.85;4.75;;;;;;;26.19;44.99;93969.38;5023887;28;20036;-77
2022/06/30 08:51:15;;;;;;;13.02;5.40;;;;;;;26.29;42.58;93964.19;5023918;28;20025;-76
2022/06/30 08:53:51;;;;;;;13.45;4.47;;;;;;;26.41;42.11;93969.09;5023890;28;20362;-76
2022/06/30 08:56:17;;;;;;;8.52;4.97;;;;;;;26.50;41.89;93969.34;5023700;28;20029;-76
2022/06/30 08:58:45;;;;;;;11.15;4.65;;;;;;;26.55;42.15;93957.19;5023581;28;20053;-76
2022/06/30 09:01:11;;;;;;;11.52;4.82;;;;;;;26.61;41.80;93959.06;5023622;28;20235;-76
2022/06/30 09:03:38;;;;;;;9.85;4.57;;;;;;;26.71;41.18;93957.34;5023508;28;20088;-76
2022/06/30 09:06:05;;;;;;;14.23;4.57;;;;;;;26.81;41.74;93961.13;5023543;28;20021;-76
2022/06/30 09:08:30;;;;;;;26.92;4.30;;;;;;;26.86;41.25;93960.63;5023450;28;20032;-76
2022/06/30 09:10:56;;;;;;;9.23;3.78;;;;;;;27.00;41.33;93963.13;5023290;28;20319;-76
2022/06/30 09:13:23;;;;;;;13.52;4.63;;;;;;;27.10;40.41;93966.13;5023278;28;20124;-76
2022/06/30 09:15:49;;;;;;;12.52;5.35;;;;;;;27.05;40.40;93955.63;5023261;28;20097;-76
2022/06/30 09:18:26;;;;;;;9.43;4.63;;;;;;;27.07;40.56;93959.53;5023082;28;20135;-75
2022/06/30 09:20:52;;;;;;;8.18;4.72;;;;;;;27.08;40.45;93952.84;5023125;28;20370;-76
2022/06/30 09:23:29;;;;;;;26.10;5.85;;;;;;;27.15;40.49;93946.47;5023003;28;20033;-76
2022/06/30 09:26:00;;;;;;;16.50;5.50;;;;;;;27.14;40.03;93944.94;5023306;28;20048;-76
2022/06/30 09:28:46;;;;;;;9.90;4.65;;;;;;;27.16;40.31;93940.59;5023055;28;20036;-77
2022/06/30 09:31:14;;;;;;;14.98;4.57;;;;;;;27.15;40.24;93944.53;5023126;28;20034;-77
2022/06/30 09:33:44;;;;;;;16.05;4.47;;;;;;;27.32;39.83;93937.22;5023090;28;20029;-77
2022/06/30 09:36:25;;;;;;;11.80;4.90;;;;;;;27.51;39.36;93941.16;5022963;28;20017;-77
2022/06/30 09:39:06;;;;;;;13.10;5.10;;;;;;;27.47;39.67;93936.97;5023063;28;20128;-77
2022/06/30 09:41:39;;;;;;;15.60;5.72;;;;;;;27.57;40.15;93938.72;5022965;28;20033;-77
2022/06/30 09:44:24;;;;;;;10.32;4.75;;;;;;;27.72;40.58;93937.25;5022500;28;20022;-77
2022/06/30 09:46:58;;;;;;;17.15;5.47;;;;;;;27.89;38.17;93937.34;5022649;28;20032;-77
2022/06/30 09:49:35;;;;;;;15.95;4.70;;;;;;;27.89;38.24;93934.63;5023186;28;20032;-77
2022/06/30 09:52:04;;;;;;;11.02;4.70;;;;;;;27.92;38.33;93941.97;5022804;28;20097;-77
2022/06/30 09:54:34;;;;;;;14.07;5.43;;;;;;;27.80;38.12;93941.41;5022943;28;20022;-77
2022/06/30 09:57:10;;;;;;;13.02;4.70;;;;;;;27.92;38.79;93948.22;5022389;28;20276;-77
2022/06/30 09:59:35;;;;;;;16.63;5.07;;;;;;;27.96;39.67;93932.47;5022767;28;20056;-77
2022/06/30 10:02:06;;;;;;;21.83;5.15;;;;;;;28.01;38.21;93933.97;5022885;28;20025;-77
2022/06/30 10:04:50;;;;;;;17.05;5.38;;;;;;;28.11;37.05;93926.72;5022513;28;20136;-77
2022/06/30 10:07:16;;;;;;;11.45;4.97;;;;;;;28.25;38.09;93934.66;5022576;28;20024;-77
2022/06/30 10:09:42;;;;;;;11.18;3.83;;;;;;;28.42;38.02;93935.44;5022586;28;20022;-76
2022/06/30 10:12:07;;;;;;;9.73;3.65;;;;;;;28.54;35.85;93931.28;5022668;28;20071;-77
2022/06/30 10:14:35;;;;;;;7.95;3.63;;;;;;;28.68;36.94;93928.22;5022451;28;20018;-77
2022/06/30 10:17:05;;;;;;;6.68;3.10;;;;;;;28.76;35.96;93917.81;5022610;28;20018;-77
2022/06/30 10:19:31;;;;;;;19.05;4.25;;;;;;;28.89;35.89;93917.94;5022383;28;20038;-77
2022/06/30 10:21:57;;;;;;;9.63;3.75;;;;;;;28.97;34.83;93919.28;5022409;28;20085;-77
2022/06/30 10:24:23;;;;;;;9.32;3.78;;;;;;;29.03;36.67;93922.28;5022566;28;20026;-77
2022/06/30 10:29:34;;;;;;;7.03;3.55;;;;;;;29.25;34.75;93920.56;5022440;28;20986;-77
2022/06/30 10:32:11;;;;;;;8.15;2.92;;;;;;;29.36;34.70;93932.03;5022731;28;20050;-78
2022/06/30 10:34:44;;;;;;;5.95;2.88;;;;;;;29.48;34.32;93921.56;5022386;28;20034;-77
2022/06/30 10:37:20;;;;;;;5.05;2.97;;;;;;;29.61;33.33;93914.13;5022426;28;20029;-77
2022/06/30 10:39:58;;;;;;;7.30;3.13;;;;;;;29.61;31.02;93911.38;5022416;28;20026;-76
2022/06/30 10:42:42;;;;;;;7.10;3.33;;;;;;;29.57;31.52;93914.22;5021227;28;20029;-77
2022/06/30 10:45:26;;;;;;;8.40;2.70;;;;;;;29.65;33.16;93901.06;5022045;28;20040;-78
2022/06/30 10:48:12;;;;;;;10.07;2.53;;;;;;;29.77;32.48;93905.84;5022535;28;20192;-77
2022/06/30 10:50:40;;;;;;;7.40;2.88;;;;;;;29.75;31.20;93894.53;5022121;28;20049;-78
2022/06/30 10:53:08;;;;;;;12.68;3.35;;;;;;;29.82;31.64;93901.00;5022287;28;20052;-78
2022/06/30 10:55:49;;;;;;;16.30;3.08;;;;;;;29.86;31.47;93899.72;5024540;28;20026;-77
2022/06/30 10:58:16;;;;;;;5.65;2.70;;;;;;;29.85;29.87;93892.69;5025571;28;20112;-78
2022/06/30 11:00:42;;;;;;;16.65;3.10;;;;;;;29.79;31.34;93897.94;5025776;28;20303;-75
2022/06/30 11:03:08;;;;;;;11.75;2.83;;;;;;;29.93;32.63;93898.75;5025816;28;20258;-77
2022/06/30 11:05:34;;;;;;;6.82;2.95;;;;;;;29.94;32.49;93890.06;5025701;28;20058;-77
2022/06/30 11:08:36;;;;;;;6.07;2.70;;;;;;;29.89;32.37;93881.59;5025575;28;20029;-78
2022/06/30 11:11:22;;;;;;;6.65;3.00;;;;;;;29.78;33.45;93876.41;5025554;28;20029;-77
2022/06/30 11:13:51;;;;;;;8.18;3.03;;;;;;;29.93;34.10;93879.50;5025068;28;20315;-77
2022/06/30 11:16:19;;;;;;;13.27;3.03;;;;;;;30.06;34.88;93876.78;5025529;28;20100;-77
2022/06/30 11:18:46;;;;;;;9.02;2.88;;;;;;;30.28;34.15;93874.91;5025564;28;20048;-77
2022/06/30 11:43:53;;;;;;;5.93;2.83;;;;;;;31.67;30.79;93846.78;5140868;27;20583;-79
2022/06/30 11:46:20;;;;;;;9.88;2.60;;;;;;;31.73;31.11;93853.25;5141112;27;20046;-78
2022/06/30 11:48:45;;;;;;;5.93;2.45;;;;;;;31.70;30.34;93850.63;5141055;27;20027;-77
2022/06/30 11:51:11;;;;;;;6.72;2.00;;;;;;;31.73;28.07;93850.50;5140744;27;20015;-77
2022/06/30 11:53:39;;;;;;;7.68;2.40;;;;;;;31.83;29.40;93854.03;5139727;28;20038;-77
2022/06/30 11:56:04;;;;;;;7.25;2.50;;;;;;;31.93;29.45;93855.63;5140793;27;20047;-77
2022/06/30 11:58:30;;;;;;;14.38;2.78;;;;;;;31.95;29.61;93858.72;5140765;27;20248;-77
2022/06/30 12:00:55;;;;;;;14.35;2.90;;;;;;;32.04;29.39;93846.22;5140854;27;20337;-77